createdAt,value
2023-05-04T00:02:21.260Z,99.90
2023-05-04T00:04:48.157Z,99.90
2023-05-04T00:07:15.200Z,99.90
2023-05-04T00:09:41.986Z,99.90
2023-05-04T00:12:09.217Z,99.90
2023-05-04T00:14:37.140Z,99.90
2023-05-04T00:17:06.910Z,99.90
2023-05-04T00:19:39.628Z,99.90
2023-05-04T00:22:06.342Z,99.90
2023-05-04T00:24:33.375Z,99.90
2023-05-04T00:27:00.925Z,99.90
2023-05-04T00:29:27.815Z,99.90
2023-05-04T00:31:54.831Z,99.90
2023-05-04T00:34:21.783Z,99.90
2023-05-04T00:36:48.788Z,99.90
2023-05-04T00:39:15.451Z,99.90
2023-05-04T00:41:42.397Z,99.90
2023-05-04T00:44:09.502Z,99.90
2023-05-04T00:46:37.658Z,99.90
2023-05-04T00:49:05.531Z,99.90
2023-05-04T00:51:33.684Z,99.90
2023-05-04T00:54:00.745Z,99.90
2023-05-04T00:56:28.949Z,99.90
2023-05-04T00:58:58.083Z,99.90
2023-05-04T01:01:25.725Z,99.90
2023-05-04T01:03:55.033Z,99.90
2023-05-04T01:06:42.097Z,99.90
2023-05-04T01:09:19.132Z,99.90
2023-05-04T01:12:08.581Z,99.90
2023-05-04T01:14:36.349Z,99.90
2023-05-04T01:17:08.103Z,99.90
2023-05-04T01:19:35.300Z,99.90
2023-05-04T01:22:02.025Z,99.90
2023-05-04T01:24:29.557Z,99.90
2023-05-04T01:27:03.995Z,99.90
2023-05-04T01:29:48.652Z,99.90
2023-05-04T01:32:16.239Z,99.90
2023-05-04T01:34:43.267Z,99.90
2023-05-04T01:37:10.918Z,99.90
2023-05-04T01:39:37.876Z,99.90
2023-05-04T01:42:05.044Z,99.90
2023-05-04T01:44:31.786Z,99.90
2023-05-04T01:46:58.529Z,99.90
2023-05-04T01:49:25.577Z,99.90
2023-05-04T01:51:52.313Z,99.90
2023-05-04T01:54:19.020Z,99.90
2023-05-04T01:56:46.189Z,99.90
2023-05-04T01:59:13.203Z,99.90
2023-05-04T02:01:39.969Z,99.90
2023-05-04T02:04:06.734Z,99.90
2023-05-04T02:06:33.781Z,99.90
2023-05-04T02:09:00.804Z,99.90
2023-05-04T02:11:27.755Z,99.90
2023-05-04T02:13:54.454Z,99.90
2023-05-04T02:16:21.715Z,99.90
2023-05-04T02:18:48.508Z,99.90
2023-05-04T02:21:15.532Z,99.90
2023-05-04T02:23:42.224Z,99.90
2023-05-04T02:26:09.010Z,99.90
2023-05-04T02:28:35.971Z,99.90
2023-05-04T02:31:02.988Z,99.90
2023-05-04T02:33:29.709Z,99.90
2023-05-04T02:35:56.423Z,99.90
2023-05-04T02:38:23.361Z,99.90
2023-05-04T02:40:50.118Z,99.90
2023-05-04T02:43:16.850Z,99.90
2023-05-04T02:45:43.660Z,99.90
2023-05-04T02:48:10.623Z,99.90
2023-05-04T02:50:38.015Z,99.90
2023-05-04T02:53:04.969Z,99.90
2023-05-04T02:55:31.928Z,99.90
2023-05-04T02:57:58.728Z,99.90
2023-05-04T03:00:25.932Z,99.90
2023-05-04T03:02:52.847Z,99.90
2023-05-04T03:05:19.958Z,99.90
2023-05-04T03:07:46.949Z,99.90
2023-05-04T03:10:13.684Z,99.90
2023-05-04T03:12:41.030Z,99.90
2023-05-04T03:15:08.677Z,99.90
2023-05-04T03:17:35.467Z,99.90
2023-05-04T03:20:02.725Z,99.90
2023-05-04T03:22:29.874Z,99.90
2023-05-04T03:24:56.577Z,99.90
2023-05-04T03:27:23.559Z,99.90
2023-05-04T03:29:50.289Z,99.90
2023-05-04T03:32:17.308Z,99.90
2023-05-04T03:34:45.825Z,99.90
2023-05-04T03:37:13.308Z,99.90
2023-05-04T03:39:40.115Z,99.90
2023-05-04T03:42:07.093Z,99.90
2023-05-04T03:44:33.765Z,99.90
2023-05-04T03:47:00.551Z,99.90
2023-05-04T03:49:27.673Z,99.90
2023-05-04T03:51:54.400Z,99.90
2023-05-04T03:54:23.431Z,99.90
2023-05-04T03:56:50.133Z,99.90
2023-05-04T03:59:17.145Z,99.90
2023-05-04T04:01:43.972Z,99.90
2023-05-04T04:04:10.771Z,99.90
2023-05-04T04:06:37.772Z,99.90
2023-05-04T04:09:04.745Z,99.90
2023-05-04T04:11:31.882Z,99.90
2023-05-04T04:13:58.842Z,99.90
2023-05-04T04:16:26.151Z,99.90
2023-05-04T04:18:52.915Z,99.90
2023-05-04T04:21:19.844Z,99.90
2023-05-04T04:23:46.531Z,99.90
2023-05-04T04:26:13.606Z,99.90
2023-05-04T04:28:40.598Z,99.90
2023-05-04T04:31:07.424Z,99.90
2023-05-04T04:33:34.684Z,99.90
2023-05-04T04:36:01.800Z,99.90
2023-05-04T04:38:28.780Z,99.90
2023-05-04T04:40:55.612Z,99.90
2023-05-04T04:43:22.372Z,99.90
2023-05-04T04:45:49.239Z,99.90
2023-05-04T04:48:15.968Z,99.90
2023-05-04T04:50:43.242Z,99.90
2023-05-04T04:53:11.012Z,99.90
2023-05-04T04:55:37.983Z,99.90
2023-05-04T04:58:04.748Z,99.90
2023-05-04T05:00:31.699Z,99.90
2023-05-04T05:02:58.560Z,99.90
2023-05-04T05:05:25.373Z,99.90
2023-05-04T05:07:52.337Z,99.90
2023-05-04T05:10:19.679Z,99.90
2023-05-04T05:12:46.498Z,99.90
2023-05-04T05:15:13.331Z,99.90
2023-05-04T05:17:40.410Z,99.90
2023-05-04T05:20:11.361Z,99.90
2023-05-04T05:22:38.834Z,98.70
2023-05-04T05:25:07.109Z,96.90
2023-05-04T05:27:34.870Z,96.30
2023-05-04T05:30:06.150Z,95.90
2023-05-04T05:32:33.402Z,94.70
2023-05-04T05:35:00.428Z,93.60
2023-05-04T05:37:28.002Z,92.00
2023-05-04T05:39:54.851Z,90.80
2023-05-04T05:42:21.654Z,89.40
2023-05-04T05:44:48.705Z,87.80
2023-05-04T05:47:15.846Z,86.10
2023-05-04T05:49:44.786Z,82.80
2023-05-04T05:52:13.030Z,78.10
2023-05-04T05:54:39.696Z,75.10
2023-05-04T05:57:06.702Z,70.60
2023-05-04T05:59:33.476Z,63.90
2023-05-04T06:02:00.551Z,63.80
2023-05-04T06:04:27.590Z,63.00
2023-05-04T06:06:54.537Z,61.60
2023-05-04T06:09:21.349Z,60.10
2023-05-04T06:11:48.341Z,59.70
2023-05-04T06:14:15.036Z,59.80
2023-05-04T06:16:41.862Z,60.00
2023-05-04T06:19:08.790Z,60.00
2023-05-04T06:21:35.610Z,59.00
2023-05-04T06:24:02.527Z,58.50
2023-05-04T06:26:29.291Z,56.80
2023-05-04T06:28:56.017Z,55.30
2023-05-04T06:31:24.509Z,54.80
2023-05-04T06:33:51.264Z,53.70
2023-05-04T06:36:18.400Z,53.60
2023-05-04T06:38:45.111Z,51.00
2023-05-04T06:41:12.128Z,49.60
2023-05-04T06:43:42.109Z,51.10
2023-05-04T06:46:09.208Z,50.00
2023-05-04T06:48:36.351Z,47.80
2023-05-04T06:51:03.297Z,45.60
2023-05-04T06:53:30.396Z,45.00
2023-05-04T06:55:57.227Z,44.40
2023-05-04T06:58:24.307Z,44.90
2023-05-04T07:00:51.994Z,42.50
2023-05-04T07:03:18.978Z,42.00
2023-05-04T07:05:48.562Z,43.20
2023-05-04T07:08:15.280Z,44.90
2023-05-04T07:10:42.245Z,48.10
2023-05-04T07:13:09.553Z,49.50
2023-05-04T07:15:36.415Z,49.60
2023-05-04T07:18:03.197Z,49.40
2023-05-04T07:20:30.086Z,49.20
2023-05-04T07:22:57.287Z,48.70
2023-05-04T07:25:28.086Z,49.10
2023-05-04T07:27:54.778Z,48.90
2023-05-04T07:30:21.706Z,47.70
2023-05-04T07:32:48.802Z,46.00
2023-05-04T07:35:16.032Z,47.00
2023-05-04T07:37:43.091Z,47.70
2023-05-04T07:40:10.506Z,48.00
2023-05-04T07:42:37.494Z,49.00
2023-05-04T07:45:05.010Z,48.50
2023-05-04T07:47:32.072Z,48.50
2023-05-04T07:49:58.922Z,48.50
2023-05-04T07:52:25.955Z,48.40
2023-05-04T07:54:53.674Z,49.70
2023-05-04T07:57:21.324Z,49.40
2023-05-04T07:59:48.299Z,48.70
2023-05-04T08:02:15.226Z,46.80
2023-05-04T08:04:42.048Z,44.30
2023-05-04T08:07:08.755Z,43.60
2023-05-04T08:09:35.609Z,44.10
2023-05-04T08:12:04.604Z,44.70
2023-05-04T08:14:31.402Z,46.00
2023-05-04T08:16:58.123Z,45.40
2023-05-04T08:19:25.172Z,43.20
2023-05-04T08:21:52.127Z,43.10
2023-05-04T08:24:18.950Z,40.10
2023-05-04T08:26:55.649Z,39.80
2023-05-04T08:29:31.858Z,40.30
2023-05-04T08:31:59.422Z,38.20
2023-05-04T08:34:27.254Z,37.40
2023-05-04T08:36:54.276Z,37.70
2023-05-04T08:39:21.135Z,37.80
2023-05-04T08:41:47.940Z,37.80
2023-05-04T08:44:15.301Z,37.60
2023-05-04T08:46:42.555Z,36.90
2023-05-04T08:49:10.501Z,36.70
2023-05-04T08:51:37.756Z,32.80
2023-05-04T08:54:08.943Z,33.00
2023-05-04T08:56:36.520Z,34.60
2023-05-04T08:59:04.101Z,36.40
2023-05-04T09:01:32.876Z,33.10
2023-05-04T09:04:02.524Z,36.40
2023-05-04T09:06:29.425Z,36.80
2023-05-04T09:08:56.387Z,33.70
2023-05-04T09:11:23.821Z,35.70
2023-05-04T09:13:50.753Z,33.70
2023-05-04T09:16:17.738Z,35.50
2023-05-04T09:18:45.153Z,34.00
2023-05-04T09:21:12.282Z,32.50
2023-05-04T09:23:49.773Z,30.10
2023-05-04T09:26:36.096Z,28.40
2023-05-04T09:29:14.164Z,30.10
2023-05-04T09:31:49.472Z,31.10
2023-05-04T09:34:16.886Z,30.90
2023-05-04T09:36:43.640Z,31.80
2023-05-04T09:39:15.524Z,31.70
2023-05-04T09:41:43.089Z,32.30
2023-05-04T09:44:21.340Z,29.50
2023-05-04T09:46:55.857Z,30.50
2023-05-04T09:49:37.249Z,29.50
2023-05-04T09:52:05.775Z,29.90
2023-05-04T09:54:39.002Z,29.40
2023-05-04T09:57:10.530Z,29.90
2023-05-04T09:59:38.592Z,30.00
2023-05-04T10:02:21.913Z,29.80
2023-05-04T10:04:51.780Z,30.70
2023-05-04T10:07:19.677Z,30.90
2023-05-04T10:09:48.553Z,32.00
2023-05-04T10:12:15.527Z,30.50
2023-05-04T10:14:46.976Z,30.70
2023-05-04T10:17:32.457Z,30.00
2023-05-04T10:20:38.442Z,30.70
2023-05-04T10:23:22.601Z,32.50
2023-05-04T10:26:18.149Z,32.50
2023-05-04T10:29:07.048Z,32.10
2023-05-04T10:31:41.588Z,31.80
2023-05-04T10:34:09.230Z,30.80
2023-05-04T10:36:38.156Z,29.90
2023-05-04T10:39:21.184Z,28.90
2023-05-04T10:45:40.024Z,28.60
2023-05-04T10:48:08.426Z,28.40
2023-05-04T10:50:48.283Z,29.60
2023-05-04T10:53:18.706Z,30.00
2023-05-04T10:55:47.200Z,30.00
2023-05-04T10:58:16.783Z,29.80
2023-05-04T11:00:46.644Z,29.10
2023-05-04T11:03:14.190Z,29.80
2023-05-04T11:05:46.683Z,29.80
2023-05-04T11:08:21.748Z,30.00
2023-05-04T11:10:59.723Z,30.70
2023-05-04T11:13:27.916Z,29.60
2023-05-04T11:20:30.617Z,30.40
2023-05-04T11:22:58.495Z,30.30
2023-05-04T11:25:29.319Z,30.40
2023-05-04T11:27:57.121Z,31.00
2023-05-04T11:30:32.534Z,30.50
2023-05-04T11:33:00.730Z,31.30
2023-05-04T11:35:27.970Z,29.90
2023-05-04T11:37:55.942Z,29.40
2023-05-04T11:40:24.658Z,30.30
2023-05-04T11:42:56.138Z,29.00
2023-05-04T11:45:27.005Z,29.20
2023-05-04T11:47:56.746Z,30.00
2023-05-04T11:50:25.149Z,30.40
2023-05-04T11:52:51.956Z,29.20
2023-05-04T11:55:29.766Z,29.70
2023-05-04T11:58:07.549Z,28.90
2023-05-04T12:00:42.123Z,28.70
2023-05-04T12:03:12.933Z,28.90
2023-05-04T12:05:54.027Z,28.10
2023-05-04T12:08:25.965Z,29.50
2023-05-04T12:11:12.243Z,29.00
2023-05-04T12:13:40.012Z,28.30
2023-05-04T12:16:16.971Z,28.90
2023-05-04T12:18:45.299Z,27.00
2023-05-04T12:21:19.596Z,26.90
2023-05-04T12:23:47.036Z,26.00
2023-05-04T12:26:16.293Z,25.70
2023-05-04T12:28:45.303Z,25.00
2023-05-04T12:31:34.176Z,24.20
2023-05-04T12:34:01.493Z,25.60
2023-05-04T12:36:28.431Z,25.80
2023-05-04T12:38:55.009Z,23.90
2023-05-04T12:41:21.953Z,24.70
2023-05-04T12:43:49.575Z,25.00
2023-05-04T12:46:21.170Z,25.00
2023-05-04T12:48:48.118Z,25.80
2023-05-04T12:51:14.728Z,26.40
2023-05-04T12:53:42.554Z,26.60
2023-05-04T12:56:09.300Z,26.70
2023-05-04T12:58:36.154Z,27.20
2023-05-04T13:01:03.798Z,28.60
2023-05-04T13:03:30.575Z,28.20
2023-05-04T13:05:58.258Z,28.00
2023-05-04T13:08:24.976Z,27.80
2023-05-04T13:10:52.278Z,27.70
2023-05-04T13:13:19.284Z,27.90
2023-05-04T13:15:50.423Z,28.60
2023-05-04T13:18:17.350Z,29.20
2023-05-04T13:20:44.006Z,29.40
2023-05-04T13:23:11.026Z,29.50
2023-05-04T13:25:37.867Z,31.70
2023-05-04T13:28:04.556Z,30.30
2023-05-04T13:30:31.278Z,31.00
2023-05-04T13:32:58.065Z,32.10
2023-05-04T13:35:24.860Z,31.90
2023-05-04T13:37:52.063Z,31.00
2023-05-04T13:40:19.026Z,30.80
2023-05-04T13:42:46.082Z,30.70
2023-05-04T13:45:13.095Z,32.10
2023-05-04T13:47:40.805Z,31.60
2023-05-04T13:50:08.494Z,30.30
2023-05-04T13:52:35.795Z,31.40
2023-05-04T13:55:03.293Z,32.10
2023-05-04T13:57:30.306Z,30.30
2023-05-04T14:00:07.274Z,30.10
2023-05-04T14:02:35.506Z,30.70
2023-05-04T14:05:03.856Z,31.90
2023-05-04T14:07:31.036Z,31.10
2023-05-04T14:09:59.073Z,33.00
2023-05-04T14:12:25.962Z,30.70
2023-05-04T14:14:52.603Z,31.60
2023-05-04T14:17:19.485Z,29.90
2023-05-04T14:19:46.167Z,30.00
2023-05-04T14:22:13.046Z,33.00
2023-05-04T14:24:39.795Z,31.30
2023-05-04T14:27:06.415Z,31.40
2023-05-04T14:29:34.601Z,30.70
2023-05-04T14:32:01.298Z,31.20
2023-05-04T14:34:30.631Z,32.40
2023-05-04T14:36:57.649Z,33.60
2023-05-04T14:39:24.930Z,33.90
2023-05-04T14:41:53.319Z,34.90
2023-05-04T14:44:20.773Z,35.90
2023-05-04T14:46:47.497Z,33.50
2023-05-04T14:49:24.550Z,32.10
2023-05-04T14:52:01.085Z,33.30
2023-05-04T14:54:28.223Z,31.80
2023-05-04T14:56:54.945Z,33.60
2023-05-04T14:59:21.658Z,36.10
2023-05-04T15:01:48.709Z,37.10
2023-05-04T15:04:17.071Z,36.50
2023-05-04T15:06:44.018Z,36.80
2023-05-04T15:09:10.681Z,38.10
2023-05-04T15:11:37.405Z,36.80
2023-05-04T15:14:04.411Z,37.50
2023-05-04T15:16:33.136Z,38.90
2023-05-04T15:19:00.246Z,39.60
2023-05-04T15:21:28.259Z,38.70
2023-05-04T15:23:54.962Z,37.60
2023-05-04T15:26:22.428Z,39.30
2023-05-04T15:28:49.538Z,40.60
2023-05-04T15:31:18.226Z,38.70
2023-05-04T15:33:45.018Z,38.30
2023-05-04T15:36:12.049Z,38.20
2023-05-04T15:38:38.818Z,39.30
2023-05-04T15:41:06.047Z,37.60
2023-05-04T15:43:34.921Z,36.90
2023-05-04T15:46:02.335Z,37.70
2023-05-04T15:48:29.254Z,39.20
2023-05-04T15:50:55.973Z,39.80
2023-05-04T15:53:22.703Z,37.50
2023-05-04T15:55:50.567Z,38.60
2023-05-04T15:58:17.436Z,41.00
2023-05-04T16:00:44.226Z,39.90
2023-05-04T16:03:11.373Z,40.10
2023-05-04T16:05:38.208Z,39.50
2023-05-04T16:08:05.013Z,37.20
2023-05-04T16:10:32.137Z,36.60
2023-05-04T16:13:03.952Z,38.00
2023-05-04T16:15:43.349Z,38.50
2023-05-04T16:18:11.535Z,39.20
2023-05-04T16:20:40.326Z,40.60
2023-05-04T16:23:07.068Z,41.50
2023-05-04T16:25:33.776Z,42.50
2023-05-04T16:28:00.688Z,41.30
2023-05-04T16:30:32.505Z,40.10
2023-05-04T16:32:59.499Z,40.60
2023-05-04T16:35:37.947Z,41.20
2023-05-04T16:38:04.754Z,40.30
2023-05-04T16:40:34.402Z,40.40
2023-05-04T16:43:01.203Z,40.60
2023-05-04T16:45:31.899Z,38.50
2023-05-04T16:47:59.144Z,38.70
2023-05-04T16:50:26.273Z,39.80
2023-05-04T16:52:53.555Z,41.00
2023-05-04T16:55:20.801Z,41.00
2023-05-04T16:57:48.361Z,40.30
2023-05-04T17:00:15.720Z,41.20
2023-05-04T17:02:42.819Z,42.90
2023-05-04T17:05:10.562Z,42.90
2023-05-04T17:07:39.696Z,42.80
2023-05-04T17:10:08.150Z,43.60
2023-05-04T17:12:36.189Z,43.90
2023-05-04T17:15:03.666Z,43.90
2023-05-04T17:17:30.410Z,43.50
2023-05-04T17:19:57.253Z,43.20
2023-05-04T17:22:25.290Z,43.70
2023-05-04T17:24:52.678Z,43.90
2023-05-04T17:27:19.544Z,44.40
2023-05-04T17:29:46.208Z,44.80
2023-05-04T17:32:13.246Z,45.30
2023-05-04T17:34:39.970Z,45.60
2023-05-04T17:37:06.961Z,45.40
2023-05-04T17:39:33.693Z,46.00
2023-05-04T17:42:00.663Z,46.80
2023-05-04T17:44:28.823Z,47.00
2023-05-04T17:47:01.720Z,47.40
2023-05-04T17:49:28.643Z,48.20
2023-05-04T17:51:56.760Z,50.00
2023-05-04T17:54:23.470Z,51.90
2023-05-04T17:56:50.234Z,53.80
2023-05-04T17:59:18.029Z,54.70
2023-05-04T18:01:45.065Z,55.40
2023-05-04T18:04:11.848Z,55.80
2023-05-04T18:06:38.649Z,56.40
2023-05-04T18:09:05.906Z,56.90
2023-05-04T18:11:32.887Z,57.30
2023-05-04T18:13:59.634Z,57.40
2023-05-04T18:16:26.893Z,57.90
2023-05-04T18:18:53.942Z,58.30
2023-05-04T18:21:20.850Z,58.90
2023-05-04T18:23:47.819Z,59.40
2023-05-04T18:26:19.445Z,63.10
2023-05-04T18:28:46.381Z,64.40
2023-05-04T18:31:13.184Z,65.60
2023-05-04T18:33:39.989Z,67.50
2023-05-04T18:36:06.717Z,69.00
2023-05-04T18:38:34.880Z,70.40
2023-05-04T18:41:02.222Z,72.70
2023-05-04T18:43:29.047Z,74.40
2023-05-04T18:45:56.046Z,76.50
2023-05-04T18:48:23.195Z,78.30
2023-05-04T18:50:57.587Z,79.10
2023-05-04T18:53:25.052Z,80.30
2023-05-04T18:56:04.270Z,81.10
2023-05-04T18:58:31.538Z,82.80
2023-05-04T19:00:58.730Z,84.00
2023-05-04T19:03:25.748Z,85.10
2023-05-04T19:05:52.897Z,87.20
2023-05-04T19:08:20.256Z,89.70
2023-05-04T19:10:48.112Z,91.00
2023-05-04T19:13:18.203Z,92.30
2023-05-04T19:15:45.712Z,93.40
2023-05-04T19:18:12.480Z,94.20
2023-05-04T19:20:39.813Z,95.20
2023-05-04T19:23:06.871Z,96.10
2023-05-04T19:25:35.084Z,97.00
2023-05-04T19:28:08.036Z,97.80
2023-05-04T19:30:38.522Z,98.60
2023-05-04T19:33:06.880Z,99.20
2023-05-04T19:35:33.635Z,99.90
2023-05-04T19:38:01.925Z,99.90
2023-05-04T19:40:28.765Z,99.90
2023-05-04T19:42:55.527Z,99.90
2023-05-04T19:45:22.546Z,99.90
2023-05-04T19:47:50.516Z,99.90
2023-05-04T19:50:18.192Z,99.90
2023-05-04T19:52:44.956Z,99.90
2023-05-04T19:55:12.020Z,99.90
2023-05-04T19:57:39.449Z,99.90
2023-05-04T20:00:07.051Z,99.90
2023-05-04T20:02:35.060Z,99.90
2023-05-04T20:05:02.107Z,99.90
2023-05-04T20:07:28.894Z,99.90
2023-05-04T20:09:55.634Z,99.90
2023-05-04T20:12:22.688Z,99.90
2023-05-04T20:14:49.414Z,99.90
2023-05-04T20:17:16.378Z,99.90
2023-05-04T20:19:43.466Z,99.90
2023-05-04T20:22:11.023Z,99.90
2023-05-04T20:24:38.017Z,99.90
2023-05-04T20:27:04.916Z,99.90
2023-05-04T20:29:32.280Z,99.90
2023-05-04T20:32:01.658Z,99.90
2023-05-04T20:34:28.926Z,99.90
2023-05-04T20:36:56.630Z,99.90
2023-05-04T20:39:23.420Z,99.90
2023-05-04T20:41:50.505Z,99.90
2023-05-04T20:44:17.586Z,99.90
2023-05-04T20:46:47.708Z,99.90
2023-05-04T20:49:14.943Z,99.90
2023-05-04T20:51:42.521Z,99.90
2023-05-04T20:54:09.406Z,99.90
2023-05-04T20:56:36.714Z,99.90
2023-05-04T20:59:03.570Z,99.90
2023-05-04T21:01:30.354Z,99.90
2023-05-04T21:03:57.410Z,99.90
2023-05-04T21:06:24.566Z,99.90
2023-05-04T21:08:51.650Z,99.90
2023-05-04T21:11:18.715Z,99.90
2023-05-04T21:13:45.582Z,99.90
2023-05-04T21:16:12.644Z,99.90
2023-05-04T21:18:39.498Z,99.90
2023-05-04T21:21:06.559Z,99.90
2023-05-04T21:23:33.267Z,99.90
2023-05-04T21:26:04.446Z,99.90
2023-05-04T21:28:32.474Z,99.90
2023-05-04T21:30:59.325Z,99.90
2023-05-04T21:33:26.476Z,99.90
2023-05-04T21:35:53.388Z,99.90
2023-05-04T21:38:22.050Z,99.90
2023-05-04T21:40:49.252Z,99.90
2023-05-04T21:43:16.329Z,99.90
2023-05-04T21:45:43.072Z,99.90
2023-05-04T21:48:09.900Z,99.90
2023-05-04T21:50:37.239Z,99.90
2023-05-04T21:53:03.928Z,99.90
2023-05-04T21:55:30.922Z,99.90
2023-05-04T21:57:57.617Z,99.90
2023-05-04T22:00:24.553Z,99.90
2023-05-04T22:02:54.262Z,99.90
2023-05-04T22:05:22.361Z,99.90
2023-05-04T22:07:50.031Z,99.90
2023-05-04T22:10:17.486Z,99.90
2023-05-04T22:12:44.318Z,99.90
2023-05-04T22:15:11.894Z,99.90
2023-05-04T22:17:38.925Z,99.90
2023-05-04T22:20:07.301Z,99.90
2023-05-04T22:22:34.783Z,99.90
2023-05-04T22:25:01.780Z,99.90
2023-05-04T22:27:28.534Z,99.90
2023-05-04T22:29:55.338Z,99.90
2023-05-04T22:32:22.041Z,99.90
2023-05-04T22:34:49.032Z,99.90
2023-05-04T22:37:16.193Z,99.90
2023-05-04T22:39:43.032Z,99.90
2023-05-04T22:42:09.721Z,99.90
2023-05-04T22:44:36.775Z,99.90
2023-05-04T22:47:03.962Z,99.90
2023-05-04T22:49:30.691Z,99.90
2023-05-04T22:51:57.751Z,99.90
2023-05-04T22:54:24.722Z,99.90
2023-05-04T22:56:51.481Z,99.90
2023-05-04T22:59:18.421Z,99.90
2023-05-04T23:01:45.889Z,99.90
2023-05-04T23:04:12.640Z,99.90
2023-05-04T23:06:39.306Z,99.90
2023-05-04T23:09:06.361Z,99.90
2023-05-04T23:11:33.382Z,99.90
2023-05-04T23:14:00.345Z,99.90
2023-05-04T23:16:27.411Z,99.90
2023-05-04T23:18:54.177Z,99.90
2023-05-04T23:21:21.104Z,99.90
2023-05-04T23:23:51.925Z,99.90
2023-05-04T23:26:18.985Z,99.90
2023-05-04T23:28:46.111Z,99.90
2023-05-04T23:31:12.876Z,99.90
2023-05-04T23:33:39.907Z,99.90
2023-05-04T23:36:07.207Z,99.90
2023-05-04T23:38:35.145Z,99.90
2023-05-04T23:41:03.597Z,99.90
2023-05-04T23:43:30.726Z,99.90
2023-05-04T23:46:05.082Z,99.90
2023-05-04T23:48:32.513Z,99.90
2023-05-04T23:51:06.114Z,99.90
2023-05-04T23:53:35.279Z,99.90
2023-05-04T23:56:06.908Z,99.90
2023-05-04T23:58:34.810Z,99.90
